| # | Athlete | Time | Avg(mph) | Avg(W) | NP(W) | Avg HR | IF | Date |
|---|---|---|---|---|---|---|---|---|
| 1 | JD Jimmy DuPriest | 02:26:33.8 | 19.40 mph | 275W | 293W | 146 bpm | - | Sat, Mar 21, 2026 @ 12:32 PM (UTC) |
| 2 | DV David Viens | 02:26:36.8 | 19.38 mph | 216W | 227W | 149 bpm | - | Sat, Mar 21, 2026 @ 12:32 PM (UTC) |
| 3 | AS Andrew Schaaf | 02:26:38.5 | 19.41 mph | 222W | 232W | 152 bpm | - | Sat, Mar 21, 2026 @ 12:32 PM (UTC) |
| 4 | DJ Dave Johnson | 02:33:27.5 | 18.51 mph | 199W | 207W | 145 bpm | - | Sat, Mar 21, 2026 @ 12:32 PM (UTC) |
| 5 | JS Jim Strang | 02:33:29.4 | 18.51 mph | 207W | 216W | 162 bpm | - | Sat, Mar 21, 2026 @ 12:32 PM (UTC) |
| 6 | DW Don Wogaman | 02:42:02.8 | 17.53 mph | 189W | 200W | 122 bpm | - | Sat, Mar 21, 2026 @ 12:32 PM (UTC) |
| # | Athlete | Time | Avg(mph) | Avg(W) | NP(W) | Avg HR | IF | Date |
|---|---|---|---|---|---|---|---|---|
| 1 | JD Jimmy DuPriest | 00:08:07.2 | 19.76 mph | 334W | 347W | 163 bpm | - | Sat, Mar 21, 2026 @ 12:55 PM (UTC) |
| 2 | AS Andrew Schaaf | 00:08:14.3 | 19.54 mph | 265W | 278W | 168 bpm | - | Sat, Mar 21, 2026 @ 12:55 PM (UTC) |
| 3 | DV David Viens | 00:08:15.4 | 19.42 mph | 261W | 268W | 164 bpm | - | Sat, Mar 21, 2026 @ 12:55 PM (UTC) |
| 4 | JS Jim Strang | 00:09:13.8 | 17.33 mph | 230W | 238W | 159 bpm | - | Sat, Mar 21, 2026 @ 12:56 PM (UTC) |
| 5 | DJ Dave Johnson | 00:09:14.2 | 17.33 mph | 205W | 212W | 146 bpm | - | Sat, Mar 21, 2026 @ 12:56 PM (UTC) |
| 6 | DW Don Wogaman | 00:10:00.0 | 16.02 mph | 195W | 203W | 132 bpm | - | Sat, Mar 21, 2026 @ 12:56 PM (UTC) |
| # | Athlete | Time | Avg(mph) | Avg(W) | NP(W) | Avg HR | IF | Date |
|---|---|---|---|---|---|---|---|---|
| 1 | JD Jimmy DuPriest | 00:13:33.0 | 18.25 mph | 243W | 246W | 152 bpm | - | Sat, Mar 21, 2026 @ 4:23 PM (UTC) |
| 2 | DV David Viens | 00:13:34.0 | 18.24 mph | 190W | 192W | 153 bpm | - | Sat, Mar 21, 2026 @ 4:23 PM (UTC) |
| 3 | JS Jim Strang | 00:14:27.9 | 17.10 mph | 222W | 231W | 170 bpm | - | Sat, Mar 21, 2026 @ 1:48 PM (UTC) |
| 4 | DJ Dave Johnson | 00:14:28.2 | 17.09 mph | 203W | 206W | 151 bpm | - | Sat, Mar 21, 2026 @ 1:48 PM (UTC) |
| 5 | AS Andrew Schaaf | 00:15:05.4 | 16.40 mph | 175W | 176W | 142 bpm | - | Sat, Mar 21, 2026 @ 4:29 PM (UTC) |
| 6 | DW Don Wogaman | 00:15:19.3 | 16.14 mph | 184W | 188W | 125 bpm | - | Sat, Mar 21, 2026 @ 1:52 PM (UTC) |
| # | Athlete | Time | Avg(mph) | Avg(W) | NP(W) | Avg HR | IF | Date |
|---|---|---|---|---|---|---|---|---|
| 1 | DV David Viens | 00:00:28.3 | 23.91 mph | 321W | - | 142 bpm | - | Sat, Mar 21, 2026 @ 2:58 PM (UTC) |
| 2 | AS Andrew Schaaf | 00:00:28.5 | 23.61 mph | 226W | - | 142 bpm | - | Sat, Mar 21, 2026 @ 2:58 PM (UTC) |
| 3 | JD Jimmy DuPriest | 00:00:28.5 | 23.47 mph | 300W | - | 152 bpm | - | Sat, Mar 21, 2026 @ 2:58 PM (UTC) |
| 4 | JS Jim Strang | 00:00:31.4 | 22.09 mph | 193W | - | 170 bpm | - | Sat, Mar 21, 2026 @ 3:05 PM (UTC) |
| 5 | DJ Dave Johnson | 00:00:31.5 | 21.30 mph | 185W | - | 147 bpm | - | Sat, Mar 21, 2026 @ 3:05 PM (UTC) |
| 6 | DW Don Wogaman | 00:00:36.7 | 18.28 mph | 145W | - | 105 bpm | - | Sat, Mar 21, 2026 @ 3:13 PM (UTC) |